METAR Data
IDs: Format: Raw Decoded Include TAF

Data at: 0813 UTC 30 Oct 2020

METAR for:K04V (Saguache Muni, CO, US)
Text:K04V 300755Z AUTO 32012KT 10SM CLR 00/M03 A3039 RMK AO2
Temperature: 0.0°C ( 32°F)
Dewpoint: -3.0°C ( 27°F) [RH = 80%]
Pressure (altimeter):30.39 inches Hg (1029.2 mb)
Winds:from the NW (320 degrees) at 14 MPH (12 knots; 6.2 m/s)
Visibility:10 or more sm (16+ km)
Ceiling:at least 12,000 feet AGL
Clouds:sky clear below 12,000 feet AGL
QC Flag:automated observation with no human augmentation